sensor_id;sensor_type;location;lat;lon;timestamp;P1;durP1;ratioP1;P2;durP2;ratioP2
2748;SDS011;1382;52.142;11.618;2022-08-19T00:01:50;21.90;;;19.60;;
2748;SDS011;1382;52.142;11.618;2022-08-19T00:04:20;28.53;;;19.40;;
2748;SDS011;1382;52.142;11.618;2022-08-19T00:06:49;23.20;;;20.63;;
2748;SDS011;1382;52.142;11.618;2022-08-19T00:09:17;24.40;;;21.80;;
2748;SDS011;1382;52.142;11.618;2022-08-19T00:11:45;22.97;;;20.73;;
2748;SDS011;1382;52.142;11.618;2022-08-19T00:14:14;25.43;;;22.73;;
2748;SDS011;1382;52.142;11.618;2022-08-19T00:16:44;26.30;;;20.70;;
2748;SDS011;1382;52.142;11.618;2022-08-19T00:19:12;22.13;;;19.83;;
2748;SDS011;1382;52.142;11.618;2022-08-19T00:21:39;29.93;;;23.30;;
2748;SDS011;1382;52.142;11.618;2022-08-19T00:24:06;25.23;;;22.67;;
2748;SDS011;1382;52.142;11.618;2022-08-19T00:26:34;26.93;;;24.23;;
2748;SDS011;1382;52.142;11.618;2022-08-19T00:29:01;27.30;;;24.33;;
2748;SDS011;1382;52.142;11.618;2022-08-19T00:31:30;23.20;;;20.97;;
2748;SDS011;1382;52.142;11.618;2022-08-19T00:33:57;24.57;;;22.03;;
2748;SDS011;1382;52.142;11.618;2022-08-19T00:36:24;25.13;;;22.57;;
2748;SDS011;1382;52.142;11.618;2022-08-19T00:38:51;26.83;;;23.93;;
2748;SDS011;1382;52.142;11.618;2022-08-19T00:41:19;27.63;;;24.80;;
2748;SDS011;1382;52.142;11.618;2022-08-19T00:43:56;25.17;;;22.60;;
2748;SDS011;1382;52.142;11.618;2022-08-19T00:46:25;28.43;;;25.50;;
2748;SDS011;1382;52.142;11.618;2022-08-19T00:48:53;28.40;;;24.27;;
2748;SDS011;1382;52.142;11.618;2022-08-19T00:51:20;27.37;;;24.60;;
2748;SDS011;1382;52.142;11.618;2022-08-19T00:53:47;26.50;;;23.50;;
2748;SDS011;1382;52.142;11.618;2022-08-19T00:56:14;25.83;;;23.27;;
2748;SDS011;1382;52.142;11.618;2022-08-19T00:58:41;26.57;;;23.97;;
2748;SDS011;1382;52.142;11.618;2022-08-19T01:01:07;25.93;;;23.17;;
2748;SDS011;1382;52.142;11.618;2022-08-19T01:03:37;29.77;;;25.43;;
2748;SDS011;1382;52.142;11.618;2022-08-19T01:06:24;24.60;;;22.17;;
2748;SDS011;1382;52.142;11.618;2022-08-19T01:08:51;29.07;;;26.33;;
2748;SDS011;1382;52.142;11.618;2022-08-19T01:11:19;27.30;;;24.60;;
2748;SDS011;1382;52.142;11.618;2022-08-19T01:13:46;27.77;;;24.83;;
2748;SDS011;1382;52.142;11.618;2022-08-19T01:16:15;27.17;;;24.70;;
2748;SDS011;1382;52.142;11.618;2022-08-19T01:18:44;26.80;;;23.90;;
2748;SDS011;1382;52.142;11.618;2022-08-19T01:21:12;26.30;;;23.57;;
2748;SDS011;1382;52.142;11.618;2022-08-19T01:23:46;25.23;;;22.73;;
2748;SDS011;1382;52.142;11.618;2022-08-19T01:26:15;25.63;;;23.03;;
2748;SDS011;1382;52.142;11.618;2022-08-19T01:28:45;26.63;;;23.90;;
2748;SDS011;1382;52.142;11.618;2022-08-19T01:31:17;26.93;;;24.13;;
2748;SDS011;1382;52.142;11.618;2022-08-19T01:33:53;26.53;;;23.73;;
2748;SDS011;1382;52.142;11.618;2022-08-19T01:36:22;28.33;;;25.30;;
2748;SDS011;1382;52.142;11.618;2022-08-19T01:38:52;26.67;;;24.00;;
2748;SDS011;1382;52.142;11.618;2022-08-19T01:41:20;27.67;;;24.67;;
2748;SDS011;1382;52.142;11.618;2022-08-19T01:43:46;26.13;;;23.53;;
2748;SDS011;1382;52.142;11.618;2022-08-19T01:46:33;26.03;;;23.43;;
2748;SDS011;1382;52.142;11.618;2022-08-19T01:49:01;24.77;;;22.17;;
2748;SDS011;1382;52.142;11.618;2022-08-19T01:51:28;24.37;;;21.80;;
2748;SDS011;1382;52.142;11.618;2022-08-19T01:54:06;25.03;;;22.50;;
2748;SDS011;1382;52.142;11.618;2022-08-19T01:56:33;23.33;;;20.93;;
2748;SDS011;1382;52.142;11.618;2022-08-19T01:59:00;26.67;;;21.60;;
2748;SDS011;1382;52.142;11.618;2022-08-19T02:01:30;25.63;;;22.93;;
2748;SDS011;1382;52.142;11.618;2022-08-19T02:03:57;26.47;;;22.27;;
2748;SDS011;1382;52.142;11.618;2022-08-19T02:06:24;23.63;;;21.17;;
2748;SDS011;1382;52.142;11.618;2022-08-19T02:08:52;22.97;;;20.50;;
2748;SDS011;1382;52.142;11.618;2022-08-19T02:11:25;25.27;;;22.73;;
2748;SDS011;1382;52.142;11.618;2022-08-19T02:13:53;24.27;;;21.67;;
2748;SDS011;1382;52.142;11.618;2022-08-19T02:16:21;23.80;;;20.13;;
2748;SDS011;1382;52.142;11.618;2022-08-19T02:18:48;24.07;;;21.53;;
2748;SDS011;1382;52.142;11.618;2022-08-19T02:21:15;23.03;;;20.57;;
2748;SDS011;1382;52.142;11.618;2022-08-19T02:23:42;20.27;;;18.20;;
2748;SDS011;1382;52.142;11.618;2022-08-19T02:26:09;22.73;;;20.37;;
2748;SDS011;1382;52.142;11.618;2022-08-19T02:28:38;22.90;;;20.50;;
2748;SDS011;1382;52.142;11.618;2022-08-19T02:31:08;25.83;;;23.07;;
2748;SDS011;1382;52.142;11.618;2022-08-19T02:33:35;22.43;;;20.10;;
2748;SDS011;1382;52.142;11.618;2022-08-19T02:36:02;24.27;;;21.50;;
2748;SDS011;1382;52.142;11.618;2022-08-19T02:38:29;24.73;;;22.10;;
2748;SDS011;1382;52.142;11.618;2022-08-19T02:40:57;23.30;;;20.20;;
2748;SDS011;1382;52.142;11.618;2022-08-19T02:43:29;24.67;;;21.17;;
2748;SDS011;1382;52.142;11.618;2022-08-19T02:46:01;22.57;;;20.23;;
2748;SDS011;1382;52.142;11.618;2022-08-19T02:48:28;24.63;;;20.53;;
2748;SDS011;1382;52.142;11.618;2022-08-19T02:50:55;23.07;;;20.67;;
2748;SDS011;1382;52.142;11.618;2022-08-19T02:53:22;26.40;;;22.60;;
2748;SDS011;1382;52.142;11.618;2022-08-19T02:55:51;22.37;;;20.07;;
2748;SDS011;1382;52.142;11.618;2022-08-19T02:58:18;24.77;;;22.30;;
2748;SDS011;1382;52.142;11.618;2022-08-19T03:00:46;26.40;;;23.57;;
2748;SDS011;1382;52.142;11.618;2022-08-19T03:03:15;23.57;;;21.03;;
2748;SDS011;1382;52.142;11.618;2022-08-19T03:05:44;25.10;;;21.60;;
2748;SDS011;1382;52.142;11.618;2022-08-19T03:08:21;26.63;;;23.83;;
2748;SDS011;1382;52.142;11.618;2022-08-19T03:10:48;27.10;;;24.30;;
2748;SDS011;1382;52.142;11.618;2022-08-19T03:13:16;32.30;;;24.40;;
2748;SDS011;1382;52.142;11.618;2022-08-19T03:15:44;26.47;;;22.67;;
2748;SDS011;1382;52.142;11.618;2022-08-19T03:18:13;35.83;;;24.23;;
2748;SDS011;1382;52.142;11.618;2022-08-19T03:20:46;29.67;;;25.83;;
2748;SDS011;1382;52.142;11.618;2022-08-19T03:23:15;29.73;;;26.73;;
2748;SDS011;1382;52.142;11.618;2022-08-19T03:25:43;29.73;;;25.40;;
2748;SDS011;1382;52.142;11.618;2022-08-19T03:28:23;31.27;;;27.03;;
2748;SDS011;1382;52.142;11.618;2022-08-19T03:30:56;27.97;;;24.70;;
2748;SDS011;1382;52.142;11.618;2022-08-19T03:33:26;33.33;;;27.00;;
2748;SDS011;1382;52.142;11.618;2022-08-19T03:36:02;28.93;;;23.87;;
2748;SDS011;1382;52.142;11.618;2022-08-19T03:38:31;31.60;;;27.13;;
2748;SDS011;1382;52.142;11.618;2022-08-19T03:41:02;28.80;;;24.63;;
2748;SDS011;1382;52.142;11.618;2022-08-19T03:43:29;31.43;;;28.00;;
2748;SDS011;1382;52.142;11.618;2022-08-19T03:46:00;29.03;;;25.80;;
2748;SDS011;1382;52.142;11.618;2022-08-19T03:48:30;34.10;;;27.23;;
2748;SDS011;1382;52.142;11.618;2022-08-19T03:50:57;31.27;;;28.00;;
2748;SDS011;1382;52.142;11.618;2022-08-19T03:53:26;29.17;;;25.40;;
2748;SDS011;1382;52.142;11.618;2022-08-19T03:55:54;31.80;;;26.77;;
2748;SDS011;1382;52.142;11.618;2022-08-19T03:58:21;30.73;;;27.10;;
2748;SDS011;1382;52.142;11.618;2022-08-19T04:00:48;31.53;;;28.20;;
2748;SDS011;1382;52.142;11.618;2022-08-19T04:03:15;33.40;;;28.57;;
2748;SDS011;1382;52.142;11.618;2022-08-19T04:05:42;35.07;;;28.70;;
2748;SDS011;1382;52.142;11.618;2022-08-19T04:08:09;30.63;;;27.13;;
2748;SDS011;1382;52.142;11.618;2022-08-19T04:10:40;36.40;;;30.20;;
2748;SDS011;1382;52.142;11.618;2022-08-19T04:13:07;36.93;;;28.57;;
2748;SDS011;1382;52.142;11.618;2022-08-19T04:15:38;31.53;;;26.97;;
2748;SDS011;1382;52.142;11.618;2022-08-19T04:18:05;34.23;;;25.87;;
2748;SDS011;1382;52.142;11.618;2022-08-19T04:20:32;31.07;;;26.37;;
2748;SDS011;1382;52.142;11.618;2022-08-19T04:22:58;32.30;;;28.37;;
2748;SDS011;1382;52.142;11.618;2022-08-19T04:25:25;30.03;;;25.83;;
2748;SDS011;1382;52.142;11.618;2022-08-19T04:27:53;30.90;;;27.33;;
2748;SDS011;1382;52.142;11.618;2022-08-19T04:30:20;31.70;;;26.63;;
2748;SDS011;1382;52.142;11.618;2022-08-19T04:32:47;29.17;;;24.13;;
2748;SDS011;1382;52.142;11.618;2022-08-19T04:35:13;34.43;;;26.00;;
2748;SDS011;1382;52.142;11.618;2022-08-19T04:37:42;28.30;;;25.20;;
2748;SDS011;1382;52.142;11.618;2022-08-19T04:40:09;28.30;;;24.77;;
2748;SDS011;1382;52.142;11.618;2022-08-19T04:42:37;31.43;;;24.10;;
2748;SDS011;1382;52.142;11.618;2022-08-19T04:45:05;26.43;;;22.53;;
2748;SDS011;1382;52.142;11.618;2022-08-19T04:47:37;31.60;;;25.83;;
2748;SDS011;1382;52.142;11.618;2022-08-19T04:50:23;28.40;;;25.60;;
2748;SDS011;1382;52.142;11.618;2022-08-19T04:52:50;29.93;;;26.73;;
2748;SDS011;1382;52.142;11.618;2022-08-19T04:55:17;30.67;;;25.23;;
2748;SDS011;1382;52.142;11.618;2022-08-19T04:57:44;32.47;;;25.17;;
2748;SDS011;1382;52.142;11.618;2022-08-19T05:00:12;27.50;;;22.30;;
2748;SDS011;1382;52.142;11.618;2022-08-19T05:02:39;27.63;;;22.80;;
2748;SDS011;1382;52.142;11.618;2022-08-19T05:05:06;29.77;;;26.10;;
2748;SDS011;1382;52.142;11.618;2022-08-19T05:07:34;31.37;;;22.30;;
2748;SDS011;1382;52.142;11.618;2022-08-19T05:10:01;28.13;;;24.83;;
2748;SDS011;1382;52.142;11.618;2022-08-19T05:12:28;29.60;;;22.37;;
2748;SDS011;1382;52.142;11.618;2022-08-19T05:14:55;31.30;;;25.17;;
2748;SDS011;1382;52.142;11.618;2022-08-19T05:17:23;30.40;;;23.87;;
2748;SDS011;1382;52.142;11.618;2022-08-19T05:19:54;28.13;;;23.20;;
2748;SDS011;1382;52.142;11.618;2022-08-19T05:22:21;27.27;;;23.20;;
2748;SDS011;1382;52.142;11.618;2022-08-19T05:24:48;25.63;;;22.53;;
2748;SDS011;1382;52.142;11.618;2022-08-19T05:27:35;25.40;;;21.37;;
2748;SDS011;1382;52.142;11.618;2022-08-19T05:30:02;23.93;;;21.47;;
2748;SDS011;1382;52.142;11.618;2022-08-19T05:32:30;35.90;;;24.53;;
2748;SDS011;1382;52.142;11.618;2022-08-19T05:34:57;24.13;;;21.40;;
2748;SDS011;1382;52.142;11.618;2022-08-19T05:37:24;26.10;;;22.73;;
2748;SDS011;1382;52.142;11.618;2022-08-19T05:39:51;25.60;;;22.90;;
2748;SDS011;1382;52.142;11.618;2022-08-19T05:42:18;24.50;;;21.90;;
2748;SDS011;1382;52.142;11.618;2022-08-19T05:44:44;28.07;;;23.37;;
2748;SDS011;1382;52.142;11.618;2022-08-19T05:47:12;26.40;;;21.70;;
2748;SDS011;1382;52.142;11.618;2022-08-19T05:49:41;25.80;;;21.70;;
2748;SDS011;1382;52.142;11.618;2022-08-19T05:52:09;25.43;;;20.80;;
2748;SDS011;1382;52.142;11.618;2022-08-19T05:54:38;23.97;;;18.83;;
2748;SDS011;1382;52.142;11.618;2022-08-19T05:57:05;23.53;;;18.10;;
2748;SDS011;1382;52.142;11.618;2022-08-19T05:59:34;22.47;;;19.63;;
2748;SDS011;1382;52.142;11.618;2022-08-19T06:02:04;24.70;;;20.30;;
2748;SDS011;1382;52.142;11.618;2022-08-19T06:04:33;27.00;;;20.53;;
2748;SDS011;1382;52.142;11.618;2022-08-19T06:07:01;22.27;;;19.47;;
2748;SDS011;1382;52.142;11.618;2022-08-19T06:09:38;29.70;;;21.53;;
2748;SDS011;1382;52.142;11.618;2022-08-19T06:12:05;33.40;;;20.83;;
2748;SDS011;1382;52.142;11.618;2022-08-19T06:14:33;25.70;;;19.83;;
2748;SDS011;1382;52.142;11.618;2022-08-19T06:17:07;25.40;;;19.67;;
2748;SDS011;1382;52.142;11.618;2022-08-19T06:19:34;22.33;;;19.87;;
2748;SDS011;1382;52.142;11.618;2022-08-19T06:22:07;23.00;;;19.90;;
2748;SDS011;1382;52.142;11.618;2022-08-19T06:24:34;26.97;;;23.40;;
2748;SDS011;1382;52.142;11.618;2022-08-19T06:27:01;29.30;;;22.37;;
2748;SDS011;1382;52.142;11.618;2022-08-19T06:29:29;28.50;;;21.10;;
2748;SDS011;1382;52.142;11.618;2022-08-19T06:31:56;28.60;;;22.13;;
2748;SDS011;1382;52.142;11.618;2022-08-19T06:34:26;28.73;;;21.87;;
2748;SDS011;1382;52.142;11.618;2022-08-19T06:36:54;28.93;;;21.00;;
2748;SDS011;1382;52.142;11.618;2022-08-19T06:39:24;33.70;;;23.60;;
2748;SDS011;1382;52.142;11.618;2022-08-19T06:41:52;32.77;;;25.40;;
2748;SDS011;1382;52.142;11.618;2022-08-19T06:44:25;27.60;;;23.60;;
2748;SDS011;1382;52.142;11.618;2022-08-19T06:46:55;36.10;;;25.03;;
2748;SDS011;1382;52.142;11.618;2022-08-19T06:49:22;34.80;;;24.47;;
2748;SDS011;1382;52.142;11.618;2022-08-19T06:51:50;34.23;;;23.67;;
2748;SDS011;1382;52.142;11.618;2022-08-19T06:54:17;29.43;;;25.50;;
2748;SDS011;1382;52.142;11.618;2022-08-19T06:56:47;30.37;;;26.77;;
2748;SDS011;1382;52.142;11.618;2022-08-19T06:59:14;34.10;;;25.53;;
2748;SDS011;1382;52.142;11.618;2022-08-19T07:01:43;30.40;;;25.07;;
2748;SDS011;1382;52.142;11.618;2022-08-19T07:04:12;35.17;;;27.87;;
2748;SDS011;1382;52.142;11.618;2022-08-19T07:06:40;33.10;;;26.60;;
2748;SDS011;1382;52.142;11.618;2022-08-19T07:09:10;31.33;;;27.67;;
2748;SDS011;1382;52.142;11.618;2022-08-19T07:11:44;29.33;;;25.73;;
2748;SDS011;1382;52.142;11.618;2022-08-19T07:14:13;33.43;;;27.03;;
2748;SDS011;1382;52.142;11.618;2022-08-19T07:16:44;34.23;;;24.60;;
2748;SDS011;1382;52.142;11.618;2022-08-19T07:19:12;32.93;;;26.20;;
2748;SDS011;1382;52.142;11.618;2022-08-19T07:21:41;28.97;;;23.07;;
2748;SDS011;1382;52.142;11.618;2022-08-19T07:24:08;28.93;;;25.80;;
2748;SDS011;1382;52.142;11.618;2022-08-19T07:26:37;28.20;;;22.67;;
2748;SDS011;1382;52.142;11.618;2022-08-19T07:29:07;29.37;;;22.63;;
2748;SDS011;1382;52.142;11.618;2022-08-19T07:31:36;29.80;;;24.43;;
2748;SDS011;1382;52.142;11.618;2022-08-19T07:34:04;29.63;;;24.27;;
2748;SDS011;1382;52.142;11.618;2022-08-19T07:36:32;34.23;;;26.10;;
2748;SDS011;1382;52.142;11.618;2022-08-19T07:39:02;33.37;;;26.07;;
2748;SDS011;1382;52.142;11.618;2022-08-19T07:41:31;30.60;;;25.80;;
2748;SDS011;1382;52.142;11.618;2022-08-19T07:43:58;28.93;;;24.87;;
2748;SDS011;1382;52.142;11.618;2022-08-19T07:46:25;33.00;;;25.50;;
2748;SDS011;1382;52.142;11.618;2022-08-19T07:48:53;31.80;;;25.30;;
2748;SDS011;1382;52.142;11.618;2022-08-19T07:51:20;31.57;;;26.13;;
2748;SDS011;1382;52.142;11.618;2022-08-19T07:54:02;32.33;;;28.37;;
2748;SDS011;1382;52.142;11.618;2022-08-19T07:56:29;32.67;;;27.77;;
2748;SDS011;1382;52.142;11.618;2022-08-19T07:58:56;36.07;;;27.63;;
2748;SDS011;1382;52.142;11.618;2022-08-19T08:01:23;37.67;;;28.80;;
2748;SDS011;1382;52.142;11.618;2022-08-19T08:03:54;35.90;;;28.20;;
2748;SDS011;1382;52.142;11.618;2022-08-19T08:06:23;42.37;;;29.53;;
2748;SDS011;1382;52.142;11.618;2022-08-19T08:08:49;39.40;;;29.90;;
2748;SDS011;1382;52.142;11.618;2022-08-19T08:11:18;36.07;;;27.17;;
2748;SDS011;1382;52.142;11.618;2022-08-19T08:13:46;35.17;;;27.27;;
2748;SDS011;1382;52.142;11.618;2022-08-19T08:16:26;34.10;;;25.20;;
2748;SDS011;1382;52.142;11.618;2022-08-19T08:19:03;34.50;;;26.80;;
2748;SDS011;1382;52.142;11.618;2022-08-19T08:21:57;31.00;;;24.50;;
2748;SDS011;1382;52.142;11.618;2022-08-19T08:24:40;31.30;;;24.87;;
2748;SDS011;1382;52.142;11.618;2022-08-19T08:27:07;29.23;;;23.67;;
2748;SDS011;1382;52.142;11.618;2022-08-19T08:29:36;35.63;;;24.70;;
2748;SDS011;1382;52.142;11.618;2022-08-19T08:32:03;35.93;;;24.43;;
2748;SDS011;1382;52.142;11.618;2022-08-19T08:34:41;29.40;;;24.13;;
2748;SDS011;1382;52.142;11.618;2022-08-19T08:37:08;33.20;;;24.87;;
2748;SDS011;1382;52.142;11.618;2022-08-19T08:39:35;32.53;;;24.50;;
2748;SDS011;1382;52.142;11.618;2022-08-19T08:42:05;32.13;;;24.43;;
2748;SDS011;1382;52.142;11.618;2022-08-19T08:44:38;34.83;;;24.57;;
2748;SDS011;1382;52.142;11.618;2022-08-19T08:47:11;27.77;;;22.63;;
2748;SDS011;1382;52.142;11.618;2022-08-19T08:49:45;28.47;;;22.50;;
2748;SDS011;1382;52.142;11.618;2022-08-19T08:52:26;23.03;;;18.00;;
2748;SDS011;1382;52.142;11.618;2022-08-19T08:55:03;23.80;;;19.10;;
2748;SDS011;1382;52.142;11.618;2022-08-19T08:57:36;23.90;;;19.00;;
2748;SDS011;1382;52.142;11.618;2022-08-19T09:00:14;24.23;;;17.97;;
2748;SDS011;1382;52.142;11.618;2022-08-19T09:02:48;21.63;;;17.97;;
2748;SDS011;1382;52.142;11.618;2022-08-19T09:05:21;22.13;;;17.93;;
2748;SDS011;1382;52.142;11.618;2022-08-19T09:08:06;21.23;;;18.20;;
2748;SDS011;1382;52.142;11.618;2022-08-19T09:10:44;19.70;;;17.53;;
2748;SDS011;1382;52.142;11.618;2022-08-19T09:13:25;23.73;;;17.50;;
2748;SDS011;1382;52.142;11.618;2022-08-19T09:16:04;20.17;;;16.90;;
2748;SDS011;1382;52.142;11.618;2022-08-19T09:18:41;19.50;;;15.73;;
2748;SDS011;1382;52.142;11.618;2022-08-19T09:21:11;18.17;;;15.67;;
2748;SDS011;1382;52.142;11.618;2022-08-19T09:23:42;18.43;;;15.27;;
2748;SDS011;1382;52.142;11.618;2022-08-19T09:26:12;19.70;;;16.97;;
2748;SDS011;1382;52.142;11.618;2022-08-19T09:28:47;21.53;;;16.47;;
2748;SDS011;1382;52.142;11.618;2022-08-19T09:31:30;23.90;;;17.33;;
2748;SDS011;1382;52.142;11.618;2022-08-19T09:34:00;18.80;;;15.90;;
2748;SDS011;1382;52.142;11.618;2022-08-19T09:36:32;20.90;;;16.23;;
2748;SDS011;1382;52.142;11.618;2022-08-19T09:39:00;20.37;;;16.23;;
2748;SDS011;1382;52.142;11.618;2022-08-19T09:41:28;22.43;;;17.10;;
2748;SDS011;1382;52.142;11.618;2022-08-19T09:43:56;21.00;;;17.57;;
2748;SDS011;1382;52.142;11.618;2022-08-19T09:46:24;21.47;;;18.47;;
2748;SDS011;1382;52.142;11.618;2022-08-19T09:48:53;23.17;;;19.50;;
2748;SDS011;1382;52.142;11.618;2022-08-19T09:51:22;20.27;;;15.80;;
2748;SDS011;1382;52.142;11.618;2022-08-19T09:53:52;19.60;;;17.17;;
2748;SDS011;1382;52.142;11.618;2022-08-19T09:56:19;19.13;;;16.17;;
2748;SDS011;1382;52.142;11.618;2022-08-19T09:58:49;20.67;;;17.37;;
2748;SDS011;1382;52.142;11.618;2022-08-19T10:01:17;22.67;;;17.83;;
2748;SDS011;1382;52.142;11.618;2022-08-19T10:03:47;22.50;;;17.53;;
2748;SDS011;1382;52.142;11.618;2022-08-19T10:06:17;22.70;;;16.70;;
2748;SDS011;1382;52.142;11.618;2022-08-19T10:09:08;22.13;;;16.00;;
2748;SDS011;1382;52.142;11.618;2022-08-19T10:11:36;19.77;;;17.67;;
2748;SDS011;1382;52.142;11.618;2022-08-19T10:14:14;21.80;;;16.63;;
2748;SDS011;1382;52.142;11.618;2022-08-19T10:16:40;24.33;;;18.80;;
2748;SDS011;1382;52.142;11.618;2022-08-19T10:19:08;22.53;;;18.43;;
2748;SDS011;1382;52.142;11.618;2022-08-19T10:21:34;20.20;;;17.20;;
2748;SDS011;1382;52.142;11.618;2022-08-19T10:24:03;21.73;;;18.40;;
2748;SDS011;1382;52.142;11.618;2022-08-19T10:26:33;22.27;;;19.00;;
2748;SDS011;1382;52.142;11.618;2022-08-19T10:29:01;21.27;;;17.93;;
2748;SDS011;1382;52.142;11.618;2022-08-19T10:31:29;20.23;;;18.07;;
2748;SDS011;1382;52.142;11.618;2022-08-19T10:34:18;22.83;;;16.50;;
2748;SDS011;1382;52.142;11.618;2022-08-19T10:36:53;22.23;;;17.40;;
2748;SDS011;1382;52.142;11.618;2022-08-19T10:39:25;23.90;;;17.10;;
2748;SDS011;1382;52.142;11.618;2022-08-19T10:41:57;20.20;;;17.90;;
2748;SDS011;1382;52.142;11.618;2022-08-19T10:44:24;21.60;;;19.07;;
2748;SDS011;1382;52.142;11.618;2022-08-19T10:46:58;22.53;;;19.30;;
2748;SDS011;1382;52.142;11.618;2022-08-19T10:49:25;22.57;;;17.97;;
2748;SDS011;1382;52.142;11.618;2022-08-19T10:51:53;21.50;;;19.17;;
2748;SDS011;1382;52.142;11.618;2022-08-19T10:54:20;20.83;;;18.47;;
2748;SDS011;1382;52.142;11.618;2022-08-19T10:57:00;20.83;;;16.37;;
2748;SDS011;1382;52.142;11.618;2022-08-19T10:59:28;21.93;;;19.73;;
2748;SDS011;1382;52.142;11.618;2022-08-19T11:02:02;20.80;;;16.57;;
2748;SDS011;1382;52.142;11.618;2022-08-19T11:04:30;21.17;;;15.33;;
2748;SDS011;1382;52.142;11.618;2022-08-19T11:06:57;19.00;;;17.07;;
2748;SDS011;1382;52.142;11.618;2022-08-19T11:09:25;21.43;;;17.27;;
2748;SDS011;1382;52.142;11.618;2022-08-19T11:12:00;17.43;;;14.87;;
2748;SDS011;1382;52.142;11.618;2022-08-19T11:14:30;19.30;;;17.10;;
2748;SDS011;1382;52.142;11.618;2022-08-19T11:16:59;20.37;;;16.40;;
2748;SDS011;1382;52.142;11.618;2022-08-19T11:19:26;21.80;;;16.63;;
2748;SDS011;1382;52.142;11.618;2022-08-19T11:21:53;17.93;;;16.07;;
2748;SDS011;1382;52.142;11.618;2022-08-19T11:24:24;18.33;;;16.40;;
2748;SDS011;1382;52.142;11.618;2022-08-19T11:26:53;16.80;;;14.87;;
2748;SDS011;1382;52.142;11.618;2022-08-19T11:29:22;21.13;;;16.40;;
2748;SDS011;1382;52.142;11.618;2022-08-19T11:31:49;19.37;;;17.23;;
2748;SDS011;1382;52.142;11.618;2022-08-19T11:34:17;18.93;;;15.10;;
2748;SDS011;1382;52.142;11.618;2022-08-19T11:36:46;18.10;;;15.30;;
2748;SDS011;1382;52.142;11.618;2022-08-19T11:39:14;18.47;;;16.53;;
2748;SDS011;1382;52.142;11.618;2022-08-19T11:41:42;16.83;;;15.13;;
2748;SDS011;1382;52.142;11.618;2022-08-19T11:44:09;32.93;;;17.87;;
2748;SDS011;1382;52.142;11.618;2022-08-19T11:46:38;18.97;;;16.47;;
2748;SDS011;1382;52.142;11.618;2022-08-19T11:49:05;18.73;;;16.73;;
2748;SDS011;1382;52.142;11.618;2022-08-19T11:51:39;18.10;;;15.57;;
2748;SDS011;1382;52.142;11.618;2022-08-19T11:54:06;16.83;;;15.10;;
2748;SDS011;1382;52.142;11.618;2022-08-19T11:56:33;19.67;;;15.60;;
2748;SDS011;1382;52.142;11.618;2022-08-19T11:59:00;15.63;;;14.03;;
2748;SDS011;1382;52.142;11.618;2022-08-19T12:01:27;15.73;;;14.13;;
2748;SDS011;1382;52.142;11.618;2022-08-19T12:03:56;15.83;;;14.33;;
2748;SDS011;1382;52.142;11.618;2022-08-19T12:06:25;15.87;;;14.37;;
2748;SDS011;1382;52.142;11.618;2022-08-19T12:08:52;16.23;;;14.20;;
2748;SDS011;1382;52.142;11.618;2022-08-19T12:11:19;18.00;;;14.83;;
2748;SDS011;1382;52.142;11.618;2022-08-19T12:13:46;19.03;;;13.00;;
2748;SDS011;1382;52.142;11.618;2022-08-19T12:16:14;15.97;;;14.30;;
2748;SDS011;1382;52.142;11.618;2022-08-19T12:18:43;18.17;;;15.00;;
2748;SDS011;1382;52.142;11.618;2022-08-19T12:21:11;16.63;;;15.00;;
2748;SDS011;1382;52.142;11.618;2022-08-19T12:23:38;15.50;;;13.90;;
2748;SDS011;1382;52.142;11.618;2022-08-19T12:26:05;15.73;;;14.17;;
2748;SDS011;1382;52.142;11.618;2022-08-19T12:28:33;16.40;;;13.87;;
2748;SDS011;1382;52.142;11.618;2022-08-19T12:30:59;19.20;;;15.47;;
2748;SDS011;1382;52.142;11.618;2022-08-19T12:33:26;16.50;;;14.73;;
2748;SDS011;1382;52.142;11.618;2022-08-19T12:35:54;17.30;;;15.60;;
2748;SDS011;1382;52.142;11.618;2022-08-19T12:38:22;13.93;;;12.60;;
2748;SDS011;1382;52.142;11.618;2022-08-19T12:40:49;14.77;;;12.77;;
2748;SDS011;1382;52.142;11.618;2022-08-19T12:43:15;18.90;;;14.47;;
2748;SDS011;1382;52.142;11.618;2022-08-19T12:45:42;14.10;;;12.60;;
2748;SDS011;1382;52.142;11.618;2022-08-19T12:48:09;14.27;;;12.77;;
2748;SDS011;1382;52.142;11.618;2022-08-19T12:50:56;12.90;;;11.70;;
2748;SDS011;1382;52.142;11.618;2022-08-19T12:53:24;16.37;;;12.77;;
2748;SDS011;1382;52.142;11.618;2022-08-19T12:55:54;17.90;;;12.40;;
2748;SDS011;1382;52.142;11.618;2022-08-19T12:58:21;13.33;;;11.53;;
2748;SDS011;1382;52.142;11.618;2022-08-19T13:00:52;13.80;;;11.13;;
2748;SDS011;1382;52.142;11.618;2022-08-19T13:03:19;11.80;;;10.07;;
2748;SDS011;1382;52.142;11.618;2022-08-19T13:05:46;13.87;;;12.50;;
2748;SDS011;1382;52.142;11.618;2022-08-19T13:08:13;15.63;;;14.27;;
2748;SDS011;1382;52.142;11.618;2022-08-19T13:10:41;15.10;;;13.60;;
2748;SDS011;1382;52.142;11.618;2022-08-19T13:13:08;14.63;;;13.33;;
2748;SDS011;1382;52.142;11.618;2022-08-19T13:15:36;17.13;;;15.33;;
2748;SDS011;1382;52.142;11.618;2022-08-19T13:18:04;17.47;;;15.63;;
2748;SDS011;1382;52.142;11.618;2022-08-19T13:20:32;17.30;;;13.40;;
2748;SDS011;1382;52.142;11.618;2022-08-19T13:22:59;14.23;;;12.93;;
2748;SDS011;1382;52.142;11.618;2022-08-19T13:25:25;18.77;;;14.50;;
2748;SDS011;1382;52.142;11.618;2022-08-19T13:27:53;14.63;;;13.07;;
2748;SDS011;1382;52.142;11.618;2022-08-19T13:30:21;15.27;;;13.80;;
2748;SDS011;1382;52.142;11.618;2022-08-19T13:32:48;14.40;;;13.00;;
2748;SDS011;1382;52.142;11.618;2022-08-19T13:35:15;14.80;;;13.23;;
2748;SDS011;1382;52.142;11.618;2022-08-19T13:37:42;16.03;;;11.93;;
2748;SDS011;1382;52.142;11.618;2022-08-19T13:40:10;16.70;;;12.30;;
2748;SDS011;1382;52.142;11.618;2022-08-19T13:42:40;12.87;;;11.27;;
2748;SDS011;1382;52.142;11.618;2022-08-19T13:45:10;12.50;;;11.20;;
2748;SDS011;1382;52.142;11.618;2022-08-19T13:47:36;12.50;;;11.40;;
2748;SDS011;1382;52.142;11.618;2022-08-19T13:50:03;12.67;;;11.47;;
2748;SDS011;1382;52.142;11.618;2022-08-19T13:52:31;13.27;;;10.70;;
2748;SDS011;1382;52.142;11.618;2022-08-19T13:54:57;12.13;;;10.90;;
2748;SDS011;1382;52.142;11.618;2022-08-19T13:57:24;12.67;;;11.47;;
2748;SDS011;1382;52.142;11.618;2022-08-19T13:59:51;13.17;;;11.87;;
2748;SDS011;1382;52.142;11.618;2022-08-19T14:02:19;14.80;;;11.37;;
2748;SDS011;1382;52.142;11.618;2022-08-19T14:04:45;16.83;;;10.77;;
2748;SDS011;1382;52.142;11.618;2022-08-19T14:07:12;12.57;;;11.37;;
2748;SDS011;1382;52.142;11.618;2022-08-19T14:09:39;13.30;;;11.67;;
2748;SDS011;1382;52.142;11.618;2022-08-19T14:12:06;16.53;;;10.90;;
2748;SDS011;1382;52.142;11.618;2022-08-19T14:14:35;11.87;;;10.67;;
2748;SDS011;1382;52.142;11.618;2022-08-19T14:17:05;11.10;;;9.83;;
2748;SDS011;1382;52.142;11.618;2022-08-19T14:19:33;14.20;;;12.10;;
2748;SDS011;1382;52.142;11.618;2022-08-19T14:22:00;13.40;;;12.00;;
2748;SDS011;1382;52.142;11.618;2022-08-19T14:24:27;14.63;;;13.20;;
2748;SDS011;1382;52.142;11.618;2022-08-19T14:26:54;13.23;;;11.83;;
2748;SDS011;1382;52.142;11.618;2022-08-19T14:29:20;12.27;;;11.13;;
2748;SDS011;1382;52.142;11.618;2022-08-19T14:31:47;16.60;;;12.13;;
2748;SDS011;1382;52.142;11.618;2022-08-19T14:34:14;14.43;;;12.93;;
2748;SDS011;1382;52.142;11.618;2022-08-19T14:36:42;14.23;;;12.20;;
2748;SDS011;1382;52.142;11.618;2022-08-19T14:39:11;13.57;;;12.27;;
2748;SDS011;1382;52.142;11.618;2022-08-19T14:41:39;12.00;;;10.90;;
2748;SDS011;1382;52.142;11.618;2022-08-19T14:44:06;14.07;;;12.83;;
2748;SDS011;1382;52.142;11.618;2022-08-19T14:46:33;14.37;;;12.97;;